createdAt,value
2019-05-17T00:00:53.156Z,70.80
2019-05-17T00:03:21.531Z,72.63
2019-05-17T00:05:49.974Z,68.23
2019-05-17T00:08:31.026Z,69.00
2019-05-17T00:10:48.519Z,70.83
2019-05-17T00:13:17.440Z,67.73
2019-05-17T00:15:47.429Z,69.43
2019-05-17T00:18:17.125Z,66.97
2019-05-17T00:20:46.507Z,66.37
2019-05-17T00:23:17.245Z,61.93
2019-05-17T00:25:46.977Z,62.90
2019-05-17T00:28:16.400Z,62.97
2019-05-17T00:30:46.469Z,68.53
2019-05-17T00:33:16.922Z,62.77
2019-05-17T00:35:46.856Z,59.17
2019-05-17T00:38:16.891Z,63.53
2019-05-17T00:40:47.002Z,62.27
2019-05-17T00:43:16.885Z,64.60
2019-05-17T00:45:46.834Z,64.87
2019-05-17T00:48:17.221Z,66.30
2019-05-17T00:50:52.388Z,63.60
2019-05-17T00:53:16.370Z,68.40
2019-05-17T00:55:46.672Z,68.53
2019-05-17T00:58:17.298Z,50.87
2019-05-17T01:00:47.864Z,51.90
2019-05-17T01:03:16.293Z,51.63
2019-05-17T01:05:47.162Z,51.83
2019-05-17T01:08:17.290Z,45.97
2019-05-17T01:10:47.224Z,46.17
2019-05-17T01:13:17.294Z,45.30
2019-05-17T01:15:47.438Z,55.17
2019-05-17T01:18:16.267Z,48.23
2019-05-17T01:20:47.289Z,51.13
2019-05-17T01:23:16.650Z,55.43
2019-05-17T01:25:45.134Z,48.33
2019-05-17T01:28:13.516Z,49.20
2019-05-17T01:30:41.888Z,46.43
2019-05-17T01:33:10.272Z,43.47
2019-05-17T01:35:38.643Z,48.60
2019-05-17T01:38:07.525Z,48.07
2019-05-17T01:40:37.185Z,42.93
2019-05-17T01:43:07.971Z,46.77
2019-05-17T01:45:36.579Z,46.90
2019-05-17T01:48:07.045Z,49.83
2019-05-17T01:50:37.471Z,50.10
2019-05-17T01:53:07.434Z,49.70
2019-05-17T01:55:37.568Z,45.37
2019-05-17T01:58:07.398Z,47.70
2019-05-17T02:00:37.555Z,49.23
2019-05-17T02:03:07.006Z,50.00
2019-05-17T02:05:37.184Z,51.33
2019-05-17T02:08:06.719Z,52.37
2019-05-17T02:10:37.440Z,53.27
2019-05-17T02:13:06.619Z,54.13
2019-05-17T02:15:37.464Z,57.13
2019-05-17T02:18:07.023Z,60.63
2019-05-17T02:20:37.228Z,58.97
2019-05-17T02:23:07.371Z,61.93
2019-05-17T02:25:36.951Z,56.57
2019-05-17T02:28:06.031Z,60.30
2019-05-17T02:30:34.461Z,65.63
2019-05-17T02:33:04.038Z,67.47
2019-05-17T02:35:33.637Z,62.50
2019-05-17T02:38:03.122Z,63.93
2019-05-17T02:40:34.162Z,67.30
2019-05-17T02:43:03.258Z,68.77
2019-05-17T02:45:32.995Z,69.07
2019-05-17T02:48:03.933Z,64.47
2019-05-17T02:50:33.127Z,66.10
2019-05-17T02:53:04.458Z,67.50
2019-05-17T02:55:32.690Z,70.27
2019-05-17T02:58:02.924Z,66.73
2019-05-17T03:00:34.073Z,68.63
2019-05-17T03:03:03.346Z,61.83
2019-05-17T03:05:33.742Z,59.73
2019-05-17T03:08:04.114Z,52.90
2019-05-17T03:10:33.513Z,57.73
2019-05-17T03:13:03.944Z,60.10
2019-05-17T03:15:32.574Z,56.03
2019-05-17T03:18:03.767Z,52.43
2019-05-17T03:20:32.830Z,51.27
2019-05-17T03:23:03.724Z,53.63
2019-05-17T03:25:33.468Z,48.07
2019-05-17T03:28:02.856Z,49.80
2019-05-17T03:30:36.527Z,50.23
2019-05-17T03:33:07.064Z,54.00
2019-05-17T03:35:37.337Z,52.50
2019-05-17T03:38:04.795Z,50.17
2019-05-17T03:41:00.968Z,51.13
2019-05-17T03:43:03.640Z,53.67
2019-05-17T03:45:33.919Z,53.40
2019-05-17T03:48:04.932Z,49.80
2019-05-17T03:50:33.517Z,50.37
2019-05-17T03:53:02.576Z,49.40
2019-05-17T03:55:33.256Z,47.83
2019-05-17T03:58:03.139Z,51.73
2019-05-17T04:00:34.815Z,51.53
2019-05-17T04:03:02.915Z,52.87
2019-05-17T04:05:33.470Z,47.73
2019-05-17T04:08:03.556Z,58.47
2019-05-17T04:10:33.430Z,50.47
2019-05-17T04:13:04.061Z,48.27
2019-05-17T04:15:33.022Z,55.30
2019-05-17T04:18:04.345Z,52.77
2019-05-17T04:20:33.228Z,51.90
2019-05-17T04:23:03.967Z,53.07
2019-05-17T04:25:33.501Z,49.97
2019-05-17T04:28:02.875Z,53.83
2019-05-17T04:30:32.645Z,50.43
2019-05-17T04:33:03.677Z,54.53
2019-05-17T04:35:32.758Z,38.63
2019-05-17T04:38:04.059Z,38.70
2019-05-17T04:40:34.107Z,37.67
2019-05-17T04:43:03.265Z,35.03
2019-05-17T04:45:33.529Z,34.17
2019-05-17T04:48:23.276Z,31.63
2019-05-17T04:50:53.702Z,30.83
2019-05-17T04:53:23.353Z,29.87
2019-05-17T04:55:54.096Z,33.67
2019-05-17T04:58:23.182Z,31.53
2019-05-17T05:00:53.609Z,37.87
2019-05-17T05:03:23.056Z,36.53
2019-05-17T05:05:53.427Z,35.73
2019-05-17T05:08:22.472Z,36.23
2019-05-17T05:10:53.495Z,35.50
2019-05-17T05:13:22.741Z,33.13
2019-05-17T05:15:52.179Z,34.47
2019-05-17T05:18:22.103Z,33.90
2019-05-17T05:20:52.658Z,32.80
2019-05-17T05:23:23.910Z,29.53
2019-05-17T05:25:52.229Z,29.47
2019-05-17T05:28:22.512Z,27.70
2019-05-17T05:30:52.682Z,24.13
2019-05-17T05:33:22.238Z,26.10
2019-05-17T05:35:51.671Z,21.43
2019-05-17T05:38:21.655Z,18.93
2019-05-17T05:40:52.106Z,13.47
2019-05-17T05:43:22.380Z,14.30
2019-05-17T05:45:50.440Z,16.10
2019-05-17T05:48:18.827Z,19.03
2019-05-17T05:50:47.212Z,16.30
2019-05-17T05:53:15.587Z,19.87
2019-05-17T05:55:43.961Z,20.77
2019-05-17T05:58:12.619Z,23.93
2019-05-17T06:00:42.830Z,20.90
2019-05-17T06:03:11.976Z,22.37
2019-05-17T06:05:42.196Z,21.83
2019-05-17T06:08:12.315Z,20.93
2019-05-17T06:10:42.497Z,25.43
2019-05-17T06:13:13.168Z,25.63
2019-05-17T06:15:43.045Z,20.53
2019-05-17T06:18:12.148Z,19.53
2019-05-17T06:20:41.735Z,17.40
2019-05-17T06:23:12.300Z,15.77
2019-05-17T06:25:43.096Z,16.33
2019-05-17T06:28:11.485Z,14.53
2019-05-17T06:30:43.029Z,15.20
2019-05-17T06:33:11.994Z,14.17
2019-05-17T06:35:42.304Z,15.03
2019-05-17T06:38:11.991Z,15.00
2019-05-17T06:40:42.076Z,13.00
2019-05-17T06:43:13.022Z,13.97
2019-05-17T06:45:41.906Z,12.70
2019-05-17T06:48:11.863Z,12.03
2019-05-17T06:50:43.018Z,13.17
2019-05-17T06:53:12.255Z,13.77
2019-05-17T06:55:42.413Z,12.17
2019-05-17T06:58:12.005Z,11.13
2019-05-17T07:00:40.601Z,12.13
2019-05-17T07:03:09.584Z,11.70
2019-05-17T07:05:40.656Z,12.83
2019-05-17T07:08:10.878Z,15.40
2019-05-17T07:10:39.868Z,10.30
2019-05-17T07:13:10.744Z,11.40
2019-05-17T07:15:46.799Z,13.10
2019-05-17T07:18:10.315Z,11.93
2019-05-17T07:20:39.695Z,12.70
2019-05-17T07:23:10.418Z,12.17
2019-05-17T07:25:39.669Z,14.47
2019-05-17T07:28:10.035Z,13.23
2019-05-17T07:30:40.062Z,17.17
2019-05-17T07:33:10.148Z,12.33
2019-05-17T07:35:39.682Z,12.40
2019-05-17T07:38:10.603Z,11.80
2019-05-17T07:40:39.917Z,11.83
2019-05-17T07:43:13.812Z,10.00
2019-05-17T07:45:40.400Z,12.40
2019-05-17T07:48:09.773Z,9.57
2019-05-17T07:50:39.850Z,10.97
2019-05-17T07:53:10.348Z,11.07
2019-05-17T07:55:39.869Z,10.20
2019-05-17T07:58:09.976Z,15.43
2019-05-17T08:00:39.937Z,8.30
2019-05-17T08:03:13.019Z,10.23
2019-05-17T08:05:40.242Z,8.17
2019-05-17T08:08:09.775Z,8.90
2019-05-17T08:10:40.868Z,7.67
2019-05-17T08:13:24.760Z,7.80
2019-05-17T08:15:39.787Z,5.53
2019-05-17T08:18:10.801Z,5.30
2019-05-17T08:20:40.108Z,5.50
2019-05-17T08:23:10.498Z,6.53
2019-05-17T08:25:51.960Z,20.47
2019-05-17T08:28:10.897Z,25.03
2019-05-17T08:30:40.878Z,14.60
2019-05-17T08:33:10.919Z,10.87
2019-05-17T08:35:40.204Z,23.27
2019-05-17T08:38:10.260Z,10.60
2019-05-17T08:40:40.550Z,7.13
2019-05-17T08:43:09.924Z,7.20
2019-05-17T08:45:40.617Z,7.30
2019-05-17T08:48:09.500Z,6.23
2019-05-17T08:50:40.417Z,7.10
2019-05-17T08:53:10.406Z,6.07
2019-05-17T08:55:40.932Z,7.37
2019-05-17T08:58:10.231Z,6.23
2019-05-17T09:00:40.633Z,6.43
2019-05-17T09:03:10.634Z,6.30
2019-05-17T09:05:41.380Z,10.23
2019-05-17T09:08:10.457Z,8.47
2019-05-17T09:10:40.896Z,4.90
2019-05-17T09:13:12.308Z,5.40
2019-05-17T09:15:40.061Z,5.87
2019-05-17T09:18:09.924Z,5.77
2019-05-17T09:20:40.554Z,7.63
2019-05-17T09:23:09.672Z,7.37
2019-05-17T09:25:39.838Z,6.23
2019-05-17T09:28:10.150Z,8.50
2019-05-17T09:30:40.419Z,8.17
2019-05-17T09:33:11.302Z,5.50
2019-05-17T09:35:40.902Z,6.60
2019-05-17T09:38:10.194Z,6.43
2019-05-17T09:40:40.234Z,6.80
2019-05-17T09:43:10.108Z,7.67
2019-05-17T09:45:40.386Z,6.30
2019-05-17T09:48:10.277Z,4.37
2019-05-17T09:50:39.885Z,7.60
2019-05-17T09:53:10.522Z,5.97
2019-05-17T09:55:39.708Z,4.93
2019-05-17T09:58:09.816Z,5.97
2019-05-17T10:00:38.687Z,5.03
2019-05-17T10:03:09.537Z,4.87
2019-05-17T10:05:40.285Z,6.20
2019-05-17T10:08:07.610Z,7.30
2019-05-17T10:10:35.996Z,6.90
2019-05-17T10:13:04.372Z,5.03
2019-05-17T10:15:32.759Z,4.50
2019-05-17T10:18:01.132Z,6.70
2019-05-17T10:20:29.495Z,7.60
2019-05-17T10:22:59.590Z,7.73
2019-05-17T10:25:29.462Z,6.47
2019-05-17T10:28:00.354Z,8.13
2019-05-17T10:30:29.962Z,6.93
2019-05-17T10:32:59.968Z,7.63
2019-05-17T10:35:29.579Z,8.73
2019-05-17T10:37:59.787Z,6.83
2019-05-17T10:40:29.917Z,6.37
2019-05-17T10:43:00.585Z,6.47
2019-05-17T10:45:30.428Z,7.10
2019-05-17T10:48:00.639Z,7.13
2019-05-17T10:50:29.838Z,7.93
2019-05-17T10:53:00.402Z,5.23
2019-05-17T10:55:30.261Z,4.57
2019-05-17T10:58:00.431Z,5.33
2019-05-17T11:00:30.395Z,3.67
2019-05-17T11:03:00.432Z,5.50
2019-05-17T11:05:30.763Z,7.23
2019-05-17T11:07:59.902Z,6.20
2019-05-17T11:10:28.520Z,8.03
2019-05-17T11:12:56.901Z,5.17
2019-05-17T11:15:25.283Z,7.00
2019-05-17T11:17:53.674Z,7.40
2019-05-17T11:20:22.380Z,7.13
2019-05-17T11:22:50.757Z,3.20
2019-05-17T11:25:19.143Z,3.17
2019-05-17T11:27:47.510Z,5.80
2019-05-17T11:30:17.804Z,2.87
2019-05-17T11:32:46.176Z,3.10
2019-05-17T11:35:14.864Z,4.87
2019-05-17T11:37:43.240Z,4.37
2019-05-17T11:40:13.364Z,4.67
2019-05-17T11:42:41.760Z,4.67
2019-05-17T11:45:10.260Z,5.03
2019-05-17T11:47:38.643Z,3.17
2019-05-17T11:50:07.859Z,5.37
2019-05-17T11:52:36.319Z,4.67
2019-05-17T11:55:06.304Z,4.83
2019-05-17T11:57:34.683Z,5.27
2019-05-17T12:00:05.204Z,4.47
2019-05-17T12:02:33.583Z,2.67
2019-05-17T12:05:01.957Z,3.63
2019-05-17T12:07:30.338Z,3.27
2019-05-17T12:09:58.715Z,3.93
2019-05-17T12:12:27.088Z,6.53
2019-05-17T12:14:55.472Z,2.40
2019-05-17T12:17:23.849Z,2.83
2019-05-17T12:19:52.224Z,4.60
2019-05-17T12:22:20.604Z,5.00
2019-05-17T12:24:48.990Z,2.67
2019-05-17T12:27:17.368Z,6.70
2019-05-17T12:29:45.749Z,4.47
2019-05-17T12:32:16.764Z,3.53
2019-05-17T12:34:44.259Z,5.10
2019-05-17T12:37:12.643Z,4.50
2019-05-17T12:39:41.033Z,4.77
2019-05-17T12:42:09.812Z,5.17
2019-05-17T12:44:38.255Z,4.30
2019-05-17T12:47:06.627Z,6.10
2019-05-17T12:49:35.006Z,6.37
2019-05-17T12:52:03.376Z,7.10
2019-05-17T12:54:31.739Z,9.20
2019-05-17T12:57:00.123Z,5.70
2019-05-17T12:59:28.491Z,4.90
2019-05-17T13:01:56.874Z,5.67
2019-05-17T13:04:25.248Z,6.97
2019-05-17T13:06:53.632Z,4.50
2019-05-17T13:09:22.011Z,9.20
2019-05-17T13:11:50.396Z,7.00
2019-05-17T13:14:18.759Z,4.53
2019-05-17T13:16:47.136Z,7.20
2019-05-17T13:19:15.524Z,5.83
2019-05-17T13:21:43.891Z,7.20
2019-05-17T13:24:12.283Z,8.43
2019-05-17T13:26:40.656Z,18.27
2019-05-17T13:29:09.035Z,18.83
2019-05-17T13:31:37.443Z,15.70
2019-05-17T13:34:05.820Z,10.47
2019-05-17T13:36:34.196Z,10.80
2019-05-17T13:39:02.656Z,11.67
2019-05-17T13:41:31.027Z,14.93
2019-05-17T13:43:59.428Z,12.70
2019-05-17T13:46:33.213Z,8.77
2019-05-17T13:48:57.901Z,11.27
2019-05-17T13:51:26.272Z,15.07
2019-05-17T13:53:54.711Z,9.80
2019-05-17T13:56:23.111Z,11.40
2019-05-17T13:58:51.476Z,15.43
2019-05-17T14:01:19.854Z,11.67
2019-05-17T14:03:48.283Z,13.57
2019-05-17T14:06:16.724Z,11.30
2019-05-17T14:08:45.179Z,15.53
2019-05-17T14:11:13.558Z,12.60
2019-05-17T14:13:41.948Z,15.00
2019-05-17T14:16:10.328Z,12.40
2019-05-17T14:18:38.704Z,12.70
2019-05-17T14:21:07.096Z,17.23
2019-05-17T14:23:35.475Z,15.93
2019-05-17T14:26:03.925Z,15.53
2019-05-17T14:28:32.313Z,19.13
2019-05-17T14:31:00.700Z,15.67
2019-05-17T14:33:29.097Z,14.70
2019-05-17T14:35:57.479Z,17.47
2019-05-17T14:38:25.860Z,14.67
2019-05-17T14:41:13.599Z,15.40
2019-05-17T14:43:41.982Z,15.20
2019-05-17T14:46:10.358Z,15.23
2019-05-17T14:48:38.744Z,15.87
2019-05-17T14:51:07.132Z,17.67
2019-05-17T14:53:35.508Z,17.53
2019-05-17T14:56:03.906Z,16.40
2019-05-17T14:58:32.287Z,18.10
2019-05-17T15:01:00.675Z,16.33
2019-05-17T15:03:29.067Z,14.90
2019-05-17T15:05:57.447Z,14.53
2019-05-17T15:08:25.844Z,19.77
2019-05-17T15:10:54.243Z,17.80
2019-05-17T15:13:22.627Z,17.50
2019-05-17T15:15:51.008Z,17.00
2019-05-17T15:18:19.405Z,20.17
2019-05-17T15:20:47.793Z,18.40
2019-05-17T15:23:16.172Z,17.40
2019-05-17T15:25:44.560Z,16.87
2019-05-17T15:28:12.932Z,19.20
2019-05-17T15:30:41.317Z,20.37
2019-05-17T15:33:09.777Z,19.93
2019-05-17T15:35:38.161Z,22.07
2019-05-17T15:38:06.543Z,19.80
2019-05-17T15:40:35.047Z,22.50
2019-05-17T15:43:03.448Z,20.10
2019-05-17T15:45:32.560Z,25.03
2019-05-17T15:48:00.936Z,20.40
2019-05-17T15:50:29.331Z,25.60
2019-05-17T15:52:57.719Z,21.13
2019-05-17T15:55:26.092Z,21.37
2019-05-17T15:57:54.482Z,28.43
2019-05-17T16:00:22.928Z,22.67
2019-05-17T16:02:51.308Z,23.23
2019-05-17T16:05:19.993Z,23.47
2019-05-17T16:07:48.367Z,27.47
2019-05-17T16:10:16.823Z,30.00
2019-05-17T16:13:00.842Z,25.47
2019-05-17T16:15:15.495Z,25.03
2019-05-17T16:17:43.877Z,30.00
2019-05-17T16:20:16.681Z,33.60
2019-05-17T16:22:43.621Z,32.57
2019-05-17T16:25:12.344Z,43.63
2019-05-17T16:27:40.738Z,38.27
2019-05-17T16:30:09.444Z,33.27
2019-05-17T16:32:37.832Z,29.87
2019-05-17T16:35:06.498Z,31.43
2019-05-17T16:37:34.888Z,33.77
2019-05-17T16:40:04.614Z,35.17
2019-05-17T16:42:32.992Z,35.53
2019-05-17T16:45:01.372Z,26.67
2019-05-17T16:47:29.763Z,25.23
2019-05-17T16:49:58.139Z,29.23
2019-05-17T16:52:26.538Z,30.17
2019-05-17T16:54:54.912Z,27.97
2019-05-17T16:57:23.297Z,28.00
2019-05-17T16:59:51.684Z,31.40
2019-05-17T17:02:20.061Z,28.77
2019-05-17T17:04:48.439Z,29.10
2019-05-17T17:07:16.833Z,29.53
2019-05-17T17:09:45.214Z,27.43
2019-05-17T17:12:13.671Z,28.07
2019-05-17T17:14:42.047Z,32.13
2019-05-17T17:17:12.652Z,32.07
2019-05-17T17:19:40.601Z,32.47
2019-05-17T17:22:08.988Z,34.07
2019-05-17T17:24:37.379Z,31.83
2019-05-17T17:27:05.778Z,35.23
2019-05-17T17:29:34.155Z,39.43
2019-05-17T17:32:02.532Z,33.57
2019-05-17T17:34:30.926Z,35.27
2019-05-17T17:36:59.311Z,34.60
2019-05-17T17:39:27.704Z,37.97
2019-05-17T17:41:56.103Z,37.50
2019-05-17T17:44:24.479Z,41.10
2019-05-17T17:46:52.852Z,37.73
2019-05-17T17:49:21.239Z,36.47
2019-05-17T17:51:49.613Z,40.07
2019-05-17T17:54:18.008Z,36.17
2019-05-17T17:56:46.387Z,35.07
2019-05-17T17:59:14.770Z,36.70
2019-05-17T18:01:43.162Z,37.83
2019-05-17T18:04:11.544Z,38.40
2019-05-17T18:06:39.935Z,39.50
2019-05-17T18:09:08.316Z,41.57
2019-05-17T18:11:36.931Z,37.97
2019-05-17T18:14:12.861Z,42.33
2019-05-17T18:16:35.508Z,39.57
2019-05-17T18:19:03.904Z,45.77
2019-05-17T18:21:32.376Z,46.43
2019-05-17T18:24:00.756Z,43.57
2019-05-17T18:26:29.153Z,45.73
2019-05-17T18:28:57.531Z,45.37
2019-05-17T18:31:25.914Z,44.40
2019-05-17T18:33:54.379Z,48.20
2019-05-17T18:36:22.759Z,47.33
2019-05-17T18:38:53.093Z,49.13
2019-05-17T18:41:21.468Z,43.40
2019-05-17T18:43:49.859Z,46.67
2019-05-17T18:46:18.299Z,48.13
2019-05-17T18:48:46.788Z,49.27
2019-05-17T18:51:15.279Z,46.40
2019-05-17T18:53:43.997Z,46.63
2019-05-17T18:56:12.376Z,51.07
2019-05-17T18:58:40.771Z,53.00
2019-05-17T19:01:09.151Z,53.57
2019-05-17T19:03:37.544Z,52.53
2019-05-17T19:06:06.095Z,53.60
2019-05-17T19:08:34.479Z,52.23
2019-05-17T19:11:02.874Z,54.47
2019-05-17T19:13:31.252Z,56.77
2019-05-17T19:15:59.629Z,56.27
2019-05-17T19:18:28.023Z,54.33
2019-05-17T19:20:56.404Z,55.87
2019-05-17T19:23:26.002Z,61.37
2019-05-17T19:25:54.627Z,57.13
2019-05-17T19:28:23.016Z,59.33
2019-05-17T19:30:51.407Z,54.03
2019-05-17T19:33:19.804Z,53.57
2019-05-17T19:35:48.189Z,61.73
2019-05-17T19:38:16.563Z,59.70
2019-05-17T19:40:44.951Z,57.93
2019-05-17T19:43:13.333Z,56.73
2019-05-17T19:45:41.719Z,66.70
2019-05-17T19:48:10.136Z,66.37
2019-05-17T19:50:38.501Z,65.00
2019-05-17T19:53:07.137Z,60.17
2019-05-17T19:55:35.511Z,57.23
2019-05-17T19:58:03.895Z,63.00
2019-05-17T20:00:32.271Z,67.63
2019-05-17T20:03:00.657Z,67.80
2019-05-17T20:05:29.052Z,68.17
2019-05-17T20:07:57.712Z,65.50
2019-05-17T20:10:26.233Z,62.67
2019-05-17T20:12:54.631Z,69.60
2019-05-17T20:15:33.930Z,73.43
2019-05-17T20:17:53.127Z,64.93
2019-05-17T20:20:21.576Z,75.87
2019-05-17T20:22:49.972Z,75.40
2019-05-17T20:25:18.491Z,76.83
2019-05-17T20:27:46.883Z,71.43
2019-05-17T20:30:16.012Z,77.13
2019-05-17T20:32:44.389Z,78.43
2019-05-17T20:35:13.203Z,83.33
2019-05-17T20:37:41.606Z,86.57
2019-05-17T20:40:10.258Z,91.83
2019-05-17T20:42:38.620Z,87.47
2019-05-17T20:45:08.358Z,88.50
2019-05-17T20:47:36.751Z,88.00
2019-05-17T20:50:09.684Z,90.70
2019-05-17T20:52:38.058Z,93.03
2019-05-17T20:55:06.792Z,99.40
2019-05-17T20:57:35.180Z,110.13
2019-05-17T21:00:06.393Z,101.70
2019-05-17T21:02:34.768Z,116.20
2019-05-17T21:05:03.841Z,113.07
2019-05-17T21:07:32.245Z,132.53
2019-05-17T21:10:00.643Z,134.70
2019-05-17T21:12:29.031Z,123.33
2019-05-17T21:14:57.416Z,114.30
2019-05-17T21:17:25.821Z,137.50
2019-05-17T21:19:54.206Z,116.83
2019-05-17T21:22:22.589Z,125.00
2019-05-17T21:24:50.976Z,135.13
2019-05-17T21:27:19.368Z,141.07
2019-05-17T21:29:47.747Z,147.23
2019-05-17T21:32:16.139Z,144.27
2019-05-17T21:34:44.530Z,157.20
2019-05-17T21:37:12.899Z,122.67
2019-05-17T21:39:42.084Z,520.67
2019-05-17T21:42:10.564Z,243.57
2019-05-17T21:44:38.948Z,569.50
2019-05-17T21:47:07.340Z,202.63
2019-05-17T21:49:35.743Z,332.93
2019-05-17T21:52:04.191Z,734.83
2019-05-17T21:54:32.589Z,361.70
2019-05-17T21:57:00.968Z,198.60
2019-05-17T21:59:29.347Z,144.87
2019-05-17T22:01:58.160Z,179.67
2019-05-17T22:04:28.079Z,151.73
2019-05-17T22:06:56.465Z,147.63
2019-05-17T22:09:24.923Z,182.03
2019-05-17T22:11:55.020Z,191.67
2019-05-17T22:14:23.453Z,213.37
2019-05-17T22:16:51.876Z,219.50
2019-05-17T22:19:20.269Z,217.60
2019-05-17T22:21:48.663Z,221.30
2019-05-17T22:24:17.042Z,213.47
2019-05-17T22:26:45.441Z,172.10
2019-05-17T22:29:13.811Z,151.90
2019-05-17T22:31:42.203Z,153.73
2019-05-17T22:34:10.607Z,116.63
2019-05-17T22:36:38.994Z,124.83
2019-05-17T22:39:07.449Z,117.23
2019-05-17T22:41:36.076Z,139.23
2019-05-17T22:44:04.536Z,122.50
2019-05-17T22:46:35.983Z,120.43
2019-05-17T22:49:03.260Z,141.27
2019-05-17T22:51:31.647Z,132.83
2019-05-17T22:54:00.028Z,132.03
2019-05-17T22:56:28.420Z,165.93
2019-05-17T22:58:56.795Z,190.27
2019-05-17T23:01:25.184Z,1070.17
2019-05-17T23:03:53.571Z,839.87
2019-05-17T23:06:21.971Z,513.23
2019-05-17T23:08:50.351Z,466.73
2019-05-17T23:11:18.731Z,797.57
2019-05-17T23:13:47.123Z,661.67
2019-05-17T23:16:15.511Z,533.57
2019-05-17T23:18:45.535Z,410.13
2019-05-17T23:21:13.929Z,166.10
2019-05-17T23:23:42.315Z,149.80
2019-05-17T23:26:10.972Z,158.60
2019-05-17T23:28:39.367Z,158.30
2019-05-17T23:31:07.760Z,119.50
2019-05-17T23:33:36.215Z,108.17
2019-05-17T23:36:04.593Z,89.00
2019-05-17T23:38:32.987Z,79.90
2019-05-17T23:41:01.367Z,159.03
2019-05-17T23:43:29.747Z,118.97
2019-05-17T23:45:58.132Z,115.27
2019-05-17T23:48:26.511Z,774.93
2019-05-17T23:50:54.895Z,83.87
2019-05-17T23:53:23.276Z,283.93
2019-05-17T23:55:51.750Z,283.70
2019-05-17T23:58:20.127Z,700.73
